This is the latest recevied weather packets stored in our database for station/object HG2HNB-13. If no packets are shown the sender has not sent any weather packets the latest 10 day(s).
| Time | Temp. | Humidity | Pressure | Rain* | Wind** | Luminosity | Snow |
|---|---|---|---|---|---|---|---|
| 1778257927 | 22.22° C | 33% | 1014.6 hPa | 0 mm | - | - | - |
| 1778257283 | 22.78° C | 31% | 1014.6 hPa | 0 mm | - | - | - |
| 1778256103 | 21.67° C | 34% | 1014.7 hPa | 0 mm | - | - | - |
| 1778254307 | 22.78° C | 31% | 1014.8 hPa | 0 mm | - | - | - |
| 1778253683 | 22.78° C | 31% | 1014.8 hPa | 0 mm | - | - | - |
| 1778253127 | 23.33° C | 31% | 1014.7 hPa | 0 mm | - | - | - |
| 1778252523 | 23.33° C | 30% | 1014.9 hPa | 0 mm | - | - | - |
| 1778251907 | 23.33° C | 32% | 1015 hPa | 0 mm | - | - | - |
| 1778250707 | 22.78° C | 31% | 1015.3 hPa | 0 mm | - | - | - |
| 1778241683 | 22.22° C | 40% | 1016 hPa | 0 mm | - | - | - |
| 1778241107 | 22.22° C | 39% | 1016 hPa | 0 mm | - | - | - |
| 1778240503 | 22.22° C | 40% | 1016 hPa | 0 mm | - | - | - |
| 1778239907 | 21.67° C | 40% | 1016.1 hPa | 0 mm | - | - | - |
| 1778239283 | 21.67° C | 40% | 1016.2 hPa | 0 mm | - | - | - |
| 1778238707 | 21.11° C | 40% | 1016.2 hPa | 0 mm | - | - | - |
| 1778238083 | 21.67° C | 41% | 1016.1 hPa | 0 mm | - | - | - |
| 1778237527 | 21.11° C | 41% | 1016.3 hPa | 0 mm | - | - | - |
| 1778236883 | 21.11° C | 42% | 1016.3 hPa | 0 mm | - | - | - |
| 1778233283 | 20° C | 45% | 1016.9 hPa | 0 mm | - | - | - |
| 1778231527 | 19.44° C | 49% | 1016.6 hPa | 0 mm | - | - | - |
| 1778230903 | 19.44° C | 50% | 1016.9 hPa | 0 mm | - | - | - |
| 1778230307 | 18.33° C | 51% | 1016.5 hPa | 0 mm | - | - | - |
| 1778227283 | 16.67° C | 56% | 1016.5 hPa | 0 mm | - | - | - |
| 1778226123 | 16.67° C | 54% | 1016.4 hPa | 0 mm | - | - | - |
| 1778221303 | 15° C | 58% | 1016.3 hPa | 0 mm | - | - | - |
* Rain latest hour (hover to see other rain measurements)
** Current wind speed in m/s (hover to see current wind gust speed)